Archimede — IXZR — position and weather

sailwx.info

Track history (hours):
 
Tides and Currents Weather Stations Pressure Air Temp Water Temp Dewpoint Dewpoint Depression Visibility Wind Speed Wind Dir Waves Ship Positions

Archimede

Last reported at 2016-Jun-28 12:34 UTC. Time now 2016-Jun-28 13:26 UTC.
Position N 38°13' E 015°37'.

; draft 3.1 m.

Type: Passenger vessel. MMSI: 247054700.

Date/timePositionNaut miles runAvg speedWind from/ knotsBaromVisibWave heightAir tempDewpointWater temp
2016-Jun-28 12:34N 38°13' E 015°37'4 3.6
2016-Jun-28 11:34N 38°10' E 015°37'2 2.1
2016-Jun-28 10:33N 38°10' E 015°34'3 3.3
2016-Jun-28 09:34N 38°12' E 015°37'6 5.8
2016-Jun-28 08:34N 38°08' E 015°31'7 7.3
2016-Jun-28 07:33N 38°13' E 015°38'0 0.0
2016-Jun-28 06:33N 38°13' E 015°38'0 0.0
2016-Jun-28 01:21N 38°13' E 015°38'7 8.2
2016-Jun-28 00:33N 38°08' E 015°33'7 6.5
2016-Jun-27 23:33N 38°13' E 015°38'6 6.3
2016-Jun-27 22:33N 38°08' E 015°33'5 5.4
2016-Jun-27 21:33N 38°13' E 015°37'6 5.9
2016-Jun-27 20:33N 38°08' E 015°32'7 6.8
2016-Jun-27 19:33N 38°13' E 015°38'4 3.8
2016-Jun-27 18:33N 38°10' E 015°37'2 2.3
2016-Jun-27 17:33N 38°09' E 015°34'3 3.5
2016-Jun-27 16:33N 38°11' E 015°37'5 5.3
2016-Jun-27 15:33N 38°08' E 015°32'7 7.2
2016-Jun-27 14:33N 38°13' E 015°38'7 6.7
2016-Jun-27 13:33N 38°08' E 015°33'7 6.7
2016-Jun-27 12:33N 38°13' E 015°38'6 5.9
2016-Jun-27 11:33N 38°08' E 015°34'4 4.0
2016-Jun-27 10:33N 38°12' E 015°36'3 2.7
2016-Jun-27 09:33N 38°10' E 015°37'2 2.0
2016-Jun-27 08:33N 38°11' E 015°35'2 1.7
2016-Jun-27 07:31N 38°13' E 015°34'0 0.0
2016-Jun-27 06:31N 38°13' E 015°34'2 0.1
2016-Jun-25 23:34N 38°14' E 015°36'6 5.7
2016-Jun-25 22:33N 38°08' E 015°33'5 5.0
2016-Jun-25 21:33N 38°13' E 015°36'6 5.9
2016-Jun-25 20:34N 38°08' E 015°31'7 7.4
2016-Jun-25 19:34N 38°13' E 015°38'5 5.0
2016-Jun-25 18:33N 38°09' E 015°35'2 2.4
2016-Jun-25 17:33N 38°11' E 015°35'2 1.7
2016-Jun-25 16:33N 38°11' E 015°37'3 3.2
2016-Jun-25 15:34N 38°09' E 015°33'4 4.5
2016-Jun-25 14:34N 38°12' E 015°37'6 6.4
2016-Jun-25 13:33N 38°08' E 015°31'7 7.5
2016-Jun-25 12:33N 38°13' E 015°38'5 4.8
2016-Jun-25 11:33N 38°09' E 015°36'3 3.4
2016-Jun-25 10:33N 38°12' E 015°36'1 1.4
2016-Jun-25 09:33N 38°13' E 015°37'6 6.0
2016-Jun-25 08:33N 38°08' E 015°32'7 6.8
2016-Jun-25 07:33N 38°13' E 015°38'0 0.0
2016-Jun-25 06:33N 38°13' E 015°38'1 0.2
2016-Jun-25 00:34N 38°12' E 015°37'5 5.1
2016-Jun-24 23:33N 38°09' E 015°33'6 6.1
2016-Jun-24 22:33N 38°13' E 015°38'7 7.4
2016-Jun-24 21:33N 38°08' E 015°31'0 0.4
2016-Jun-24 20:33N 38°08' E 015°32'7 7.0
2016-Jun-24 19:33N 38°13' E 015°38'6 5.8
2016-Jun-24 18:33N 38°08' E 015°34'4 4.0
2016-Jun-24 17:33N 38°12' E 015°36'2 2.5
2016-Jun-24 16:33N 38°10' E 015°37'2 2.5
2016-Jun-24 15:33N 38°09' E 015°34'4 4.0
2016-Jun-24 14:33N 38°12' E 015°37'6 6.3
2016-Jun-24 13:33N 38°08' E 015°31'7 7.4
2016-Jun-24 12:33N 38°13' E 015°38'5 4.8
2016-Jun-24 11:33N 38°09' E 015°36'3 2.7
2016-Jun-24 10:33N 38°12' E 015°35'1 1.2
2016-Jun-24 09:33N 38°11' E 015°37'3 3.3
2016-Jun-24 08:34N 38°09' E 015°33'4 3.5
2016-Jun-24 07:33N 38°11' E 015°37'4 3.6
2016-Jun-24 06:33N 38°09' E 015°33'5 1.1
2016-Jun-24 01:30N 38°13' E 015°38'7 7.1
2016-Jun-24 00:33N 38°08' E 015°32'7 6.7
2016-Jun-23 23:34N 38°13' E 015°38'7 7.4
2016-Jun-23 22:33N 38°08' E 015°31'7 7.4
2016-Jun-23 21:34N 38°13' E 015°38'7 7.3
2016-Jun-23 20:33N 38°08' E 015°32'7 6.8
2016-Jun-23 19:33N 38°13' E 015°37'4 3.9
2016-Jun-23 18:33N 38°09' E 015°37'2 2.1
2016-Jun-23 17:33N 38°10' E 015°34'3 2.5
2016-Jun-23 16:33N 38°11' E 015°37'5 4.8
2016-Jun-23 15:33N 38°08' E 015°32'7 6.8
2016-Jun-23 14:33N 38°13' E 015°38'7 6.6
2016-Jun-23 13:33N 38°08' E 015°33'6 6.5
2016-Jun-23 12:33N 38°13' E 015°38'1 1.2
2016-Jun-23 11:34N 38°12' E 015°37'5 5.1
2016-Jun-23 10:33N 38°09' E 015°33'6 6.0
2016-Jun-23 09:33N 38°13' E 015°38'7 7.1
2016-Jun-23 08:33N 38°08' E 015°32'7 7.3
2016-Jun-23 07:33N 38°13' E 015°38'0 0.0
2016-Jun-23 01:23N 38°13' E 015°38'6 7.4
2016-Jun-23 00:33N 38°08' E 015°33'6 6.0
2016-Jun-22 23:33N 38°13' E 015°37'7 7.0
2016-Jun-22 22:33N 38°08' E 015°32'7 6.9
2016-Jun-22 21:34N 38°13' E 015°37'6 6.0
2016-Jun-22 20:33N 38°08' E 015°33'5 5.0
2016-Jun-22 19:33N 38°13' E 015°36'2 2.0
2016-Jun-22 18:33N 38°11' E 015°37'3 2.5
2016-Jun-22 17:33N 38°09' E 015°34'4 3.7
2016-Jun-22 16:33N 38°12' E 015°37'5 5.1
2016-Jun-22 15:34N 38°09' E 015°33'6 6.3
2016-Jun-22 14:34N 38°13' E 015°38'6 6.1
2016-Jun-22 13:33N 38°09' E 015°33'6 6.1
2016-Jun-22 12:33N 38°13' E 015°38'5 5.2
2016-Jun-22 11:33N 38°09' E 015°35'3 3.4
2016-Jun-22 10:34N 38°12' E 015°36'3 2.8
2016-Jun-22 09:34N 38°09' E 015°36'2 2.1
2016-Jun-22 08:34N 38°11' E 015°35'2 2.3
2016-Jun-22 07:33N 38°09' E 015°36'2 1.8
2016-Jun-22 06:33N 38°10' E 015°34'4 0.8
2016-Jun-22 01:18N 38°13' E 015°38'6 7.5
2016-Jun-22 00:33N 38°08' E 015°34'5 4.6
2016-Jun-21 23:33N 38°13' E 015°36'5 4.6
2016-Jun-21 22:33N 38°09' E 015°34'4 3.6
2016-Jun-21 21:33N 38°12' E 015°35'3 2.6
2016-Jun-21 20:33N 38°10' E 015°34'3 2.8
2016-Jun-21 19:33N 38°12' E 015°35'2 1.7
2016-Jun-21 18:33N 38°11' E 015°37'3 3.1
2016-Jun-21 17:33N 38°09' E 015°34'4 3.7
2016-Jun-21 16:33N 38°12' E 015°37'4 4.1
2016-Jun-21 15:33N 38°09' E 015°33'6 5.8
2016-Jun-21 14:33N 38°13' E 015°38'7 7.5
2016-Jun-21 13:33N 38°08' E 015°31'7 7.4
2016-Jun-21 12:34N 38°13' E 015°38'6 5.6
2016-Jun-21 11:33N 38°09' E 015°34'5 4.7
2016-Jun-21 10:33N 38°13' E 015°36'4 3.8
2016-Jun-21 09:33N 38°09' E 015°36'2 1.9
2016-Jun-21 08:33N 38°11' E 015°35'2 1.9
2016-Jun-21 07:33N 38°09' E 015°36'2 1.6
2016-Jun-21 06:34N 38°10' E 015°34'5 0.9
2016-Jun-21 01:16N 38°13' E 015°38'5 7.0
2016-Jun-21 00:33N 38°09' E 015°35'3 3.0
2016-Jun-20 23:33N 38°12' E 015°36'3 2.8
2016-Jun-20 22:34N 38°09' E 015°36'3 2.9
2016-Jun-20 21:33N 38°12' E 015°35'4 3.6
2016-Jun-20 20:33N 38°08' E 015°34'5 4.5
2016-Jun-20 19:33N 38°13' E 015°36'1 1.3
2016-Jun-20 18:33N 38°12' E 015°37'4 3.8
2016-Jun-20 17:34N 38°09' E 015°34'4 3.6
2016-Jun-20 16:33N 38°12' E 015°37'4 4.2
2016-Jun-20 15:34N 38°09' E 015°33'6 5.9
2016-Jun-20 14:33N 38°13' E 015°38'7 7.4
2016-Jun-20 13:33N 38°08' E 015°31'7 7.4
2016-Jun-20 12:33N 38°13' E 015°38'5 5.4
2016-Jun-20 11:33N 38°09' E 015°34'4 3.8
2016-Jun-20 10:33N 38°12' E 015°36'2 1.5
2016-Jun-20 09:33N 38°13' E 015°34'0 0.0
2016-Jun-20 08:33N 38°13' E 015°34'0 0.0
2016-Jun-20 07:33N 38°13' E 015°34'0 0.0
2016-Jun-20 06:33N 38°13' E 015°34'1 0.0
2016-Jun-19 01:34N 38°13' E 015°35'4 4.2
2016-Jun-19 00:33N 38°09' E 015°34'5 5.5
2016-Jun-18 23:33N 38°13' E 015°38'6 5.7
2016-Jun-18 22:34N 38°09' E 015°34'6 5.7
2016-Jun-18 21:33N 38°13' E 015°37'7 6.8
2016-Jun-18 20:33N 38°08' E 015°32'7 6.6
2016-Jun-18 19:33N 38°13' E 015°37'2 2.5
2016-Jun-18 18:34N 38°11' E 015°37'3 2.8
2016-Jun-18 17:33N 38°09' E 015°34'3 3.0
2016-Jun-18 16:33N 38°11' E 015°37'4 3.6
2016-Jun-18 15:33N 38°09' E 015°33'6 5.9
2016-Jun-18 14:33N 38°13' E 015°38'7 7.4
2016-Jun-18 13:33N 38°08' E 015°31'7 7.4
2016-Jun-18 12:34N 38°13' E 015°38'  
Track history (hours):
 
Tides and Currents Weather Stations Pressure Air Temp Water Temp Dewpoint Dewpoint Depression Visibility Wind Speed Wind Dir Waves Ship Positions

Archimede

Last reported at 2016-Jun-28 12:34 UTC. Time now 2016-Jun-28 13:26 UTC.
Position N 38°13' E 015°37'.

; draft 3.1 m.

Type: Passenger vessel. MMSI: 247054700.

Date/timePositionNaut miles runAvg speedWind from/ knotsBaromVisibWave heightAir tempDewpointWater temp
2016-Jun-28 12:34N 38°13' E 015°37'4 3.6
2016-Jun-28 11:34N 38°10' E 015°37'2 2.1
2016-Jun-28 10:33N 38°10' E 015°34'3 3.3
2016-Jun-28 09:34N 38°12' E 015°37'6 5.8
2016-Jun-28 08:34N 38°08' E 015°31'7 7.3
2016-Jun-28 07:33N 38°13' E 015°38'0 0.0
2016-Jun-28 06:33N 38°13' E 015°38'0 0.0
2016-Jun-28 01:21N 38°13' E 015°38'7 8.2
2016-Jun-28 00:33N 38°08' E 015°33'7 6.5
2016-Jun-27 23:33N 38°13' E 015°38'6 6.3
2016-Jun-27 22:33N 38°08' E 015°33'5 5.4
2016-Jun-27 21:33N 38°13' E 015°37'6 5.9
2016-Jun-27 20:33N 38°08' E 015°32'7 6.8
2016-Jun-27 19:33N 38°13' E 015°38'4 3.8
2016-Jun-27 18:33N 38°10' E 015°37'2 2.3
2016-Jun-27 17:33N 38°09' E 015°34'3 3.5
2016-Jun-27 16:33N 38°11' E 015°37'5 5.3
2016-Jun-27 15:33N 38°08' E 015°32'7 7.2
2016-Jun-27 14:33N 38°13' E 015°38'7 6.7
2016-Jun-27 13:33N 38°08' E 015°33'7 6.7
2016-Jun-27 12:33N 38°13' E 015°38'6 5.9
2016-Jun-27 11:33N 38°08' E 015°34'4 4.0
2016-Jun-27 10:33N 38°12' E 015°36'3 2.7
2016-Jun-27 09:33N 38°10' E 015°37'2 2.0
2016-Jun-27 08:33N 38°11' E 015°35'2 1.7
2016-Jun-27 07:31N 38°13' E 015°34'0 0.0
2016-Jun-27 06:31N 38°13' E 015°34'2 0.1
2016-Jun-25 23:34N 38°14' E 015°36'6 5.7
2016-Jun-25 22:33N 38°08' E 015°33'5 5.0
2016-Jun-25 21:33N 38°13' E 015°36'6 5.9
2016-Jun-25 20:34N 38°08' E 015°31'7 7.4
2016-Jun-25 19:34N 38°13' E 015°38'5 5.0
2016-Jun-25 18:33N 38°09' E 015°35'2 2.4
2016-Jun-25 17:33N 38°11' E 015°35'2 1.7
2016-Jun-25 16:33N 38°11' E 015°37'3 3.2
2016-Jun-25 15:34N 38°09' E 015°33'4 4.5
2016-Jun-25 14:34N 38°12' E 015°37'6 6.4
2016-Jun-25 13:33N 38°08' E 015°31'7 7.5
2016-Jun-25 12:33N 38°13' E 015°38'5 4.8
2016-Jun-25 11:33N 38°09' E 015°36'3 3.4
2016-Jun-25 10:33N 38°12' E 015°36'1 1.4
2016-Jun-25 09:33N 38°13' E 015°37'6 6.0
2016-Jun-25 08:33N 38°08' E 015°32'7 6.8
2016-Jun-25 07:33N 38°13' E 015°38'0 0.0
2016-Jun-25 06:33N 38°13' E 015°38'1 0.2
2016-Jun-25 00:34N 38°12' E 015°37'5 5.1
2016-Jun-24 23:33N 38°09' E 015°33'6 6.1
2016-Jun-24 22:33N 38°13' E 015°38'7 7.4
2016-Jun-24 21:33N 38°08' E 015°31'0 0.4
2016-Jun-24 20:33N 38°08' E 015°32'7 7.0
2016-Jun-24 19:33N 38°13' E 015°38'6 5.8
2016-Jun-24 18:33N 38°08' E 015°34'4 4.0
2016-Jun-24 17:33N 38°12' E 015°36'2 2.5
2016-Jun-24 16:33N 38°10' E 015°37'2 2.5
2016-Jun-24 15:33N 38°09' E 015°34'4 4.0
2016-Jun-24 14:33N 38°12' E 015°37'6 6.3
2016-Jun-24 13:33N 38°08' E 015°31'7 7.4
2016-Jun-24 12:33N 38°13' E 015°38'5 4.8
2016-Jun-24 11:33N 38°09' E 015°36'3 2.7
2016-Jun-24 10:33N 38°12' E 015°35'1 1.2
2016-Jun-24 09:33N 38°11' E 015°37'3 3.3
2016-Jun-24 08:34N 38°09' E 015°33'4 3.5
2016-Jun-24 07:33N 38°11' E 015°37'4 3.6
2016-Jun-24 06:33N 38°09' E 015°33'5 1.1
2016-Jun-24 01:30N 38°13' E 015°38'7 7.1
2016-Jun-24 00:33N 38°08' E 015°32'7 6.7
2016-Jun-23 23:34N 38°13' E 015°38'7 7.4
2016-Jun-23 22:33N 38°08' E 015°31'7 7.4
2016-Jun-23 21:34N 38°13' E 015°38'7 7.3
2016-Jun-23 20:33N 38°08' E 015°32'7 6.8
2016-Jun-23 19:33N 38°13' E 015°37'4 3.9
2016-Jun-23 18:33N 38°09' E 015°37'2 2.1
2016-Jun-23 17:33N 38°10' E 015°34'3 2.5
2016-Jun-23 16:33N 38°11' E 015°37'5 4.8
2016-Jun-23 15:33N 38°08' E 015°32'7 6.8
2016-Jun-23 14:33N 38°13' E 015°38'7 6.6
2016-Jun-23 13:33N 38°08' E 015°33'6 6.5
2016-Jun-23 12:33N 38°13' E 015°38'1 1.2
2016-Jun-23 11:34N 38°12' E 015°37'5 5.1
2016-Jun-23 10:33N 38°09' E 015°33'6 6.0
2016-Jun-23 09:33N 38°13' E 015°38'7 7.1
2016-Jun-23 08:33N 38°08' E 015°32'7 7.3
2016-Jun-23 07:33N 38°13' E 015°38'0 0.0
2016-Jun-23 01:23N 38°13' E 015°38'6 7.4
2016-Jun-23 00:33N 38°08' E 015°33'6 6.0
2016-Jun-22 23:33N 38°13' E 015°37'7 7.0
2016-Jun-22 22:33N 38°08' E 015°32'7 6.9
2016-Jun-22 21:34N 38°13' E 015°37'6 6.0
2016-Jun-22 20:33N 38°08' E 015°33'5 5.0
2016-Jun-22 19:33N 38°13' E 015°36'2 2.0
2016-Jun-22 18:33N 38°11' E 015°37'3 2.5
2016-Jun-22 17:33N 38°09' E 015°34'4 3.7
2016-Jun-22 16:33N 38°12' E 015°37'5 5.1
2016-Jun-22 15:34N 38°09' E 015°33'6 6.3
2016-Jun-22 14:34N 38°13' E 015°38'6 6.1
2016-Jun-22 13:33N 38°09' E 015°33'6 6.1
2016-Jun-22 12:33N 38°13' E 015°38'5 5.2
2016-Jun-22 11:33N 38°09' E 015°35'3 3.4
2016-Jun-22 10:34N 38°12' E 015°36'3 2.8
2016-Jun-22 09:34N 38°09' E 015°36'2 2.1
2016-Jun-22 08:34N 38°11' E 015°35'2 2.3
2016-Jun-22 07:33N 38°09' E 015°36'2 1.8
2016-Jun-22 06:33N 38°10' E 015°34'4 0.8
2016-Jun-22 01:18N 38°13' E 015°38'6 7.5
2016-Jun-22 00:33N 38°08' E 015°34'5 4.6
2016-Jun-21 23:33N 38°13' E 015°36'5 4.6
2016-Jun-21 22:33N 38°09' E 015°34'4 3.6
2016-Jun-21 21:33N 38°12' E 015°35'3 2.6
2016-Jun-21 20:33N 38°10' E 015°34'3 2.8
2016-Jun-21 19:33N 38°12' E 015°35'2 1.7
2016-Jun-21 18:33N 38°11' E 015°37'3 3.1
2016-Jun-21 17:33N 38°09' E 015°34'4 3.7
2016-Jun-21 16:33N 38°12' E 015°37'4 4.1
2016-Jun-21 15:33N 38°09' E 015°33'6 5.8
2016-Jun-21 14:33N 38°13' E 015°38'7 7.5
2016-Jun-21 13:33N 38°08' E 015°31'7 7.4
2016-Jun-21 12:34N 38°13' E 015°38'6 5.6
2016-Jun-21 11:33N 38°09' E 015°34'5 4.7
2016-Jun-21 10:33N 38°13' E 015°36'4 3.8
2016-Jun-21 09:33N 38°09' E 015°36'2 1.9
2016-Jun-21 08:33N 38°11' E 015°35'2 1.9
2016-Jun-21 07:33N 38°09' E 015°36'2 1.6
2016-Jun-21 06:34N 38°10' E 015°34'5 0.9
2016-Jun-21 01:16N 38°13' E 015°38'5 7.0
2016-Jun-21 00:33N 38°09' E 015°35'3 3.0
2016-Jun-20 23:33N 38°12' E 015°36'3 2.8
2016-Jun-20 22:34N 38°09' E 015°36'3 2.9
2016-Jun-20 21:33N 38°12' E 015°35'4 3.6
2016-Jun-20 20:33N 38°08' E 015°34'5 4.5
2016-Jun-20 19:33N 38°13' E 015°36'1 1.3
2016-Jun-20 18:33N 38°12' E 015°37'4 3.8
2016-Jun-20 17:34N 38°09' E 015°34'4 3.6
2016-Jun-20 16:33N 38°12' E 015°37'4 4.2
2016-Jun-20 15:34N 38°09' E 015°33'6 5.9
2016-Jun-20 14:33N 38°13' E 015°38'7 7.4
2016-Jun-20 13:33N 38°08' E 015°31'7 7.4
2016-Jun-20 12:33N 38°13' E 015°38'5 5.4
2016-Jun-20 11:33N 38°09' E 015°34'4 3.8
2016-Jun-20 10:33N 38°12' E 015°36'2 1.5
2016-Jun-20 09:33N 38°13' E 015°34'0 0.0
2016-Jun-20 08:33N 38°13' E 015°34'0 0.0
2016-Jun-20 07:33N 38°13' E 015°34'0 0.0
2016-Jun-20 06:33N 38°13' E 015°34'1 0.0
2016-Jun-19 01:34N 38°13' E 015°35'4 4.2
2016-Jun-19 00:33N 38°09' E 015°34'5 5.5
2016-Jun-18 23:33N 38°13' E 015°38'6 5.7
2016-Jun-18 22:34N 38°09' E 015°34'6 5.7
2016-Jun-18 21:33N 38°13' E 015°37'7 6.8
2016-Jun-18 20:33N 38°08' E 015°32'7 6.6
2016-Jun-18 19:33N 38°13' E 015°37'2 2.5
2016-Jun-18 18:34N 38°11' E 015°37'3 2.8
2016-Jun-18 17:33N 38°09' E 015°34'3 3.0
2016-Jun-18 16:33N 38°11' E 015°37'4 3.6
2016-Jun-18 15:33N 38°09' E 015°33'6 5.9
2016-Jun-18 14:33N 38°13' E 015°38'7 7.4
2016-Jun-18 13:33N 38°08' E 015°31'7 7.4
2016-Jun-18 12:34N 38°13' E 015°38'  

Dump ship's entire track history